Time;durP1;ratioP1;P1;durP2;ratioP2;P2;SDS_P1;SDS_P2;PMS_P1;PMS_P2;Temp;Humidity;BMP_temperature;BMP_pressure;BME280_temperature;BME280_humidity;BME280_pressure;Samples;Min_cycle;Max_cycle;Signal;HPM_P1;HPM_P2
2022/08/05 00:02:18;;;;;;;5.90;5.33;;;;;;;;;;5074147;28;20196;-79
2022/08/05 00:04:45;;;;;;;18.13;5.47;;;;;;;;;;5074380;28;20201;-79
2022/08/05 00:07:12;;;;;;;9.13;4.83;;;;;;;;;;5073647;28;20247;-80
2022/08/05 00:09:38;;;;;;;8.93;4.50;;;;;;;;;;5089864;28;20200;-80
2022/08/05 00:12:06;;;;;;;15.23;4.63;;;;;;;;;;5073729;28;20201;-80
2022/08/05 00:14:32;;;;;;;4.13;3.73;;;;;;;;;;5073903;28;20204;-80
2022/08/05 00:17:00;;;;;;;6.03;4.30;;;;;;;;;;5072149;28;20250;-79
2022/08/05 00:19:27;;;;;;;4.13;3.83;;;;;;;;;;5073858;28;20197;-80
2022/08/05 00:21:54;;;;;;;4.20;3.90;;;;;;;;;;5073691;28;20196;-79
2022/08/05 00:24:21;;;;;;;4.60;4.20;;;;;;;;;;5073807;28;20224;-79
2022/08/05 00:26:48;;;;;;;5.80;3.93;;;;;;;;;;5073155;28;20713;-79
2022/08/05 00:29:14;;;;;;;4.60;4.00;;;;;;;;;;5073549;28;20197;-80
2022/08/05 00:31:41;;;;;;;5.97;4.43;;;;;;;;;;5074110;28;20201;-80
2022/08/05 00:34:09;;;;;;;7.30;4.33;;;;;;;;;;5074001;28;20215;-80
2022/08/05 00:36:36;;;;;;;4.07;3.77;;;;;;;;;;5073167;28;20197;-79
2022/08/05 00:39:03;;;;;;;4.83;4.43;;;;;;;;;;5073064;28;20197;-80
2022/08/05 00:41:31;;;;;;;19.10;5.57;;;;;;;;;;5071955;28;20270;-80
2022/08/05 00:43:58;;;;;;;5.63;4.10;;;;;;;;;;5072335;28;20221;-79
2022/08/05 00:46:25;;;;;;;5.30;4.80;;;;;;;;;;5072920;28;20204;-79
2022/08/05 00:48:52;;;;;;;6.07;4.30;;;;;;;;;;5072991;28;20212;-80
2022/08/05 00:51:21;;;;;;;6.63;4.77;;;;;;;;;;5073272;28;20235;-80
2022/08/05 00:53:48;;;;;;;9.03;5.50;;;;;;;;;;5073193;28;20552;-79
2022/08/05 00:56:15;;;;;;;4.67;4.27;;;;;;;;;;5072719;28;20208;-80
2022/08/05 00:58:42;;;;;;;4.30;3.87;;;;;;;;;;5072690;28;20224;-80
2022/08/05 01:01:10;;;;;;;4.83;4.23;;;;;;;;;;5072894;28;20197;-79
2022/08/05 01:03:37;;;;;;;5.60;4.10;;;;;;;;;;5072553;28;20676;-80
2022/08/05 01:06:04;;;;;;;5.27;4.77;;;;;;;;;;5072844;28;20227;-80
2022/08/05 01:08:32;;;;;;;22.33;5.10;;;;;;;;;;5072485;28;20200;-80
2022/08/05 01:11:01;;;;;;;5.73;4.20;;;;;;;;;;5073216;28;20205;-80
2022/08/05 01:13:32;;;;;;;9.33;4.53;;;;;;;;;;5072605;28;20188;-80
2022/08/05 01:16:01;;;;;;;9.37;4.93;;;;;;;;;;5072461;28;20553;-80
2022/08/05 01:18:32;;;;;;;8.17;4.20;;;;;;;;;;5072457;28;20204;-79
2022/08/05 01:21:06;;;;;;;4.70;4.30;;;;;;;;;;5073094;28;20255;-80
2022/08/05 01:23:44;;;;;;;6.27;4.20;;;;;;;;;;5071679;28;20220;-80
2022/08/05 01:26:31;;;;;;;5.50;4.23;;;;;;;;;;5079529;28;20729;-79
2022/08/05 01:29:03;;;;;;;8.20;4.67;;;;;;;;;;5072908;28;20196;-80
2022/08/05 01:31:34;;;;;;;4.93;4.50;;;;;;;;;;5072530;28;20567;-80
2022/08/05 01:34:05;;;;;;;7.63;4.40;;;;;;;;;;5072071;28;20208;-80
2022/08/05 01:36:35;;;;;;;9.87;4.67;;;;;;;;;;5073013;28;20197;-80
2022/08/05 01:39:02;;;;;;;5.90;4.27;;;;;;;;;;5072428;28;20625;-80
2022/08/05 01:41:33;;;;;;;4.90;4.50;;;;;;;;;;5072119;28;20687;-79
2022/08/05 01:44:02;;;;;;;6.10;4.37;;;;;;;;;;5072438;28;20590;-80
2022/08/05 01:46:31;;;;;;;4.03;3.63;;;;;;;;;;5071854;28;20269;-80
2022/08/05 01:48:59;;;;;;;4.73;4.27;;;;;;;;;;5072231;28;20231;-80
2022/08/05 01:51:27;;;;;;;6.40;4.33;;;;;;;;;;5070541;28;20199;-80
2022/08/05 01:53:55;;;;;;;3.93;3.50;;;;;;;;;;5071572;28;20201;-79
2022/08/05 01:56:23;;;;;;;4.20;3.73;;;;;;;;;;5070298;28;20216;-80
2022/08/05 01:58:53;;;;;;;3.90;3.60;;;;;;;;;;5072013;28;20673;-80
2022/08/05 02:01:22;;;;;;;4.00;3.70;;;;;;;;;;5071711;28;20204;-80
2022/08/05 02:03:49;;;;;;;4.57;4.00;;;;;;;;;;5071602;28;20252;-80
2022/08/05 02:06:16;;;;;;;4.37;3.97;;;;;;;;;;5072013;28;20647;-79
2022/08/05 02:08:43;;;;;;;5.67;3.87;;;;;;;;;;5072367;28;20207;-80
2022/08/05 02:11:12;;;;;;;5.73;4.23;;;;;;;;;;5071593;28;20201;-79
2022/08/05 02:13:44;;;;;;;4.73;4.27;;;;;;;;;;5070589;28;20573;-80
2022/08/05 02:16:19;;;;;;;3.90;3.60;;;;;;;;;;5073650;28;20203;-79
2022/08/05 02:18:51;;;;;;;4.33;3.90;;;;;;;;;;5091789;28;20291;-79
2022/08/05 02:21:20;;;;;;;5.37;3.70;;;;;;;;;;5092179;28;20204;-79
2022/08/05 02:23:50;;;;;;;4.60;3.50;;;;;;;;;;5091759;28;20244;-79
2022/08/05 02:26:21;;;;;;;4.23;3.83;;;;;;;;;;5081119;28;20563;-80
2022/08/05 02:28:49;;;;;;;4.43;4.10;;;;;;;;;;5071468;28;20204;-79
2022/08/05 02:31:17;;;;;;;4.30;3.90;;;;;;;;;;5072345;28;20193;-79
2022/08/05 02:33:50;;;;;;;4.17;3.87;;;;;;;;;;5071798;28;20634;-79
2022/08/05 02:36:19;;;;;;;8.23;4.03;;;;;;;;;;5071585;28;20211;-79
2022/08/05 02:38:48;;;;;;;19.37;5.47;;;;;;;;;;5070544;28;20572;-82
2022/08/05 02:41:16;;;;;;;4.37;3.90;;;;;;;;;;5070399;28;20197;-82
2022/08/05 02:43:45;;;;;;;9.20;4.30;;;;;;;;;;5070658;28;20224;-82
2022/08/05 02:46:13;;;;;;;4.73;3.80;;;;;;;;;;5071460;28;20189;-80
2022/08/05 02:48:41;;;;;;;4.13;3.83;;;;;;;;;;5070024;28;20201;-81
2022/08/05 02:51:09;;;;;;;8.77;4.20;;;;;;;;;;5071237;28;20196;-81
2022/08/05 02:53:38;;;;;;;4.80;4.40;;;;;;;;;;5070614;28;20259;-81
2022/08/05 02:56:05;;;;;;;4.77;3.90;;;;;;;;;;5079459;28;20620;-81
2022/08/05 02:58:33;;;;;;;13.37;4.43;;;;;;;;;;5087174;28;20189;-81
2022/08/05 03:01:01;;;;;;;4.47;4.17;;;;;;;;;;5085568;28;20188;-81
2022/08/05 03:03:29;;;;;;;4.73;4.03;;;;;;;;;;5082779;28;20248;-82
2022/08/05 03:05:56;;;;;;;12.23;4.80;;;;;;;;;;5091560;28;20200;-81
2022/08/05 03:08:25;;;;;;;6.77;4.40;;;;;;;;;;5093691;28;20200;-80
2022/08/05 03:10:51;;;;;;;9.13;3.93;;;;;;;;;;5082985;28;20209;-80
2022/08/05 03:13:18;;;;;;;5.10;4.37;;;;;;;;;;5074799;28;20203;-81
2022/08/05 03:15:45;;;;;;;7.93;4.23;;;;;;;;;;5073616;28;20208;-81
2022/08/05 03:18:13;;;;;;;4.70;4.13;;;;;;;;;;5075008;28;20196;-80
2022/08/05 03:20:40;;;;;;;13.53;4.87;;;;;;;;;;5074114;28;20302;-80
2022/08/05 03:23:08;;;;;;;4.80;4.40;;;;;;;;;;5073448;28;20189;-80
2022/08/05 03:25:38;;;;;;;4.37;4.00;;;;;;;;;;5073361;28;20201;-80
2022/08/05 03:28:06;;;;;;;6.83;4.30;;;;;;;;;;5074064;28;20217;-80
2022/08/05 03:30:33;;;;;;;8.97;4.80;;;;;;;;;;5073595;28;20200;-81
2022/08/05 03:33:00;;;;;;;7.40;4.93;;;;;;;;;;5074024;28;20205;-79
2022/08/05 03:38:10;;;;;;;6.90;5.40;;;;;;;;;;5075350;28;20212;-79
2022/08/05 03:40:41;;;;;;;4.90;4.50;;;;;;;;;;5074834;28;20259;-79
2022/08/05 03:43:08;;;;;;;4.40;4.10;;;;;;;;;;5074332;28;20200;-79
2022/08/05 03:45:35;;;;;;;4.83;4.43;;;;;;;;;;5072604;28;20221;-80
2022/08/05 03:48:02;;;;;;;6.77;6.17;;;;;;;;;;5072304;28;20197;-80
2022/08/05 03:50:33;;;;;;;4.97;4.53;;;;;;;;;;5072129;28;20201;-80
2022/08/05 03:53:03;;;;;;;7.10;4.37;;;;;;;;;;5075236;28;20196;-80
2022/08/05 03:55:33;;;;;;;5.17;4.47;;;;;;;;;;5078544;28;20673;-80
2022/08/05 03:58:02;;;;;;;9.57;4.43;;;;;;;;;;5080294;28;20197;-81
2022/08/05 04:00:31;;;;;;;5.30;4.80;;;;;;;;;;5089226;28;20204;-81
2022/08/05 04:03:00;;;;;;;4.93;4.53;;;;;;;;;;5086356;28;20197;-81
2022/08/05 04:05:30;;;;;;;5.67;5.17;;;;;;;;;;5086746;28;20754;-80
2022/08/05 04:07:57;;;;;;;7.97;6.30;;;;;;;;;;5072118;28;20237;-81
2022/08/05 04:10:24;;;;;;;6.00;4.93;;;;;;;;;;5085157;28;20208;-80
2022/08/05 04:12:50;;;;;;;6.50;5.90;;;;;;;;;;5091258;28;20578;-81
2022/08/05 04:15:19;;;;;;;8.77;8.07;;;;;;;;;;5093902;28;20196;-80
2022/08/05 04:17:45;;;;;;;5.17;4.77;;;;;;;;;;5077519;28;20189;-80
2022/08/05 04:20:18;;;;;;;5.67;5.17;;;;;;;;;;5071861;28;20200;-81
2022/08/05 04:22:45;;;;;;;8.23;7.43;;;;;;;;;;5079420;28;20228;-81
2022/08/05 04:25:12;;;;;;;6.47;5.97;;;;;;;;;;5072819;28;20278;-81
2022/08/05 04:27:39;;;;;;;5.30;4.80;;;;;;;;;;5087630;28;20232;-80
2022/08/05 04:30:07;;;;;;;5.23;4.83;;;;;;;;;;5078563;28;20197;-80
2022/08/05 04:32:35;;;;;;;5.53;5.13;;;;;;;;;;5086202;28;20204;-80
2022/08/05 04:35:02;;;;;;;5.07;4.67;;;;;;;;;;5084244;28;20188;-81
2022/08/05 04:37:29;;;;;;;5.00;4.47;;;;;;;;;;5090915;28;20208;-81
2022/08/05 04:39:56;;;;;;;5.17;4.40;;;;;;;;;;5091654;28;20185;-80
2022/08/05 04:42:23;;;;;;;3.70;3.40;;;;;;;;;;5084921;28;20192;-80
2022/08/05 04:44:49;;;;;;;4.30;3.67;;;;;;;;;;5076240;28;20217;-81
2022/08/05 04:47:16;;;;;;;4.43;4.07;;;;;;;;;;5083611;28;20200;-80
2022/08/05 04:49:45;;;;;;;5.20;4.40;;;;;;;;;;5080589;28;20192;-80
2022/08/05 04:52:12;;;;;;;6.03;3.80;;;;;;;;;;5074498;28;20209;-81
2022/08/05 04:54:39;;;;;;;6.63;3.93;;;;;;;;;;5076473;28;20203;-80
2022/08/05 04:57:05;;;;;;;9.73;3.67;;;;;;;;;;5091717;28;20630;-81
2022/08/05 04:59:32;;;;;;;7.63;3.73;;;;;;;;;;5091584;28;20682;-80
2022/08/05 05:01:59;;;;;;;4.50;3.40;;;;;;;;;;5078918;28;20204;-81
2022/08/05 05:04:26;;;;;;;6.63;3.63;;;;;;;;;;5071752;28;20235;-81
2022/08/05 05:06:54;;;;;;;5.70;3.73;;;;;;;;;;5071877;28;20201;-81
2022/08/05 05:09:21;;;;;;;5.10;3.03;;;;;;;;;;5078611;28;20254;-80
2022/08/05 05:11:47;;;;;;;3.90;3.53;;;;;;;;;;5082507;28;20200;-81
2022/08/05 05:14:14;;;;;;;4.50;3.23;;;;;;;;;;5087779;28;20201;-80
2022/08/05 05:16:41;;;;;;;4.03;3.03;;;;;;;;;;5071589;28;20556;-80
2022/08/05 05:19:09;;;;;;;3.43;3.13;;;;;;;;;;5087115;28;20223;-81
2022/08/05 05:21:35;;;;;;;3.03;2.83;;;;;;;;;;5090738;28;20192;-80
2022/08/05 05:24:04;;;;;;;3.17;2.97;;;;;;;;;;5083597;28;20200;-80
2022/08/05 05:26:31;;;;;;;3.03;2.83;;;;;;;;;;5078540;28;20229;-79
2022/08/05 05:28:58;;;;;;;10.73;4.07;;;;;;;;;;5071592;28;20200;-80
2022/08/05 05:31:25;;;;;;;3.67;3.37;;;;;;;;;;5070638;28;20201;-81
2022/08/05 05:33:51;;;;;;;8.13;7.30;;;;;;;;;;5076797;28;20204;-81
2022/08/05 05:36:18;;;;;;;8.97;7.43;;;;;;;;;;5070540;28;20201;-81
2022/08/05 05:38:45;;;;;;;4.77;3.93;;;;;;;;;;5069930;28;20201;-80
2022/08/05 05:41:13;;;;;;;3.80;3.00;;;;;;;;;;5073256;28;20552;-81
2022/08/05 05:43:40;;;;;;;4.20;2.90;;;;;;;;;;5070502;28;20193;-81
2022/08/05 05:46:07;;;;;;;4.10;2.90;;;;;;;;;;5069510;28;20360;-80
2022/08/05 05:48:34;;;;;;;3.47;2.83;;;;;;;;;;5070167;28;20201;-80
2022/08/05 05:51:01;;;;;;;3.70;3.20;;;;;;;;;;5086506;28;20199;-80
2022/08/05 05:53:28;;;;;;;3.07;2.87;;;;;;;;;;5069919;28;20984;-80
2022/08/05 05:55:54;;;;;;;3.73;3.27;;;;;;;;;;5074537;28;20196;-81
2022/08/05 05:58:23;;;;;;;4.03;3.03;;;;;;;;;;5088243;28;20196;-81
2022/08/05 06:00:49;;;;;;;3.27;3.07;;;;;;;;;;5083998;28;20203;-80
2022/08/05 06:03:16;;;;;;;6.57;3.00;;;;;;;;;;5072062;28;20205;-80
2022/08/05 06:05:43;;;;;;;3.23;2.93;;;;;;;;;;5070454;28;20217;-80
2022/08/05 06:08:10;;;;;;;3.43;3.10;;;;;;;;;;5053049;28;20196;-81
2022/08/05 06:10:37;;;;;;;3.70;3.00;;;;;;;;;;5087590;28;20196;-81
2022/08/05 06:13:04;;;;;;;3.67;3.33;;;;;;;;;;5090882;28;20196;-81
2022/08/05 06:15:32;;;;;;;3.03;2.83;;;;;;;;;;5076084;28;20197;-80
2022/08/05 06:17:59;;;;;;;5.83;2.53;;;;;;;;;;5079654;28;20200;-81
2022/08/05 06:20:25;;;;;;;3.17;2.97;;;;;;;;;;5071749;28;20201;-80
2022/08/05 06:22:52;;;;;;;4.00;2.70;;;;;;;;;;5070496;28;20197;-80
2022/08/05 06:25:19;;;;;;;4.47;3.70;;;;;;;;;;5076469;28;20226;-81
2022/08/05 06:27:46;;;;;;;3.13;2.93;;;;;;;;;;5091045;28;20226;-80
2022/08/05 06:30:14;;;;;;;3.57;3.27;;;;;;;;;;5079782;28;20197;-81
2022/08/05 06:32:44;;;;;;;4.17;3.63;;;;;;;;;;5069491;28;20662;-80
2022/08/05 06:35:11;;;;;;;6.03;4.23;;;;;;;;;;5069358;28;20193;-82
2022/08/05 06:37:38;;;;;;;3.07;2.80;;;;;;;;;;5068855;28;20189;-81
2022/08/05 06:40:06;;;;;;;7.70;3.20;;;;;;;;;;5073593;28;20196;-81
2022/08/05 06:42:33;;;;;;;8.17;3.10;;;;;;;;;;5073387;28;20200;-81
2022/08/05 06:44:59;;;;;;;5.57;3.57;;;;;;;;;;5076079;28;20219;-80
2022/08/05 06:47:26;;;;;;;8.37;3.43;;;;;;;;;;5073645;28;20216;-80
2022/08/05 06:49:54;;;;;;;4.97;4.07;;;;;;;;;;5084799;28;20603;-81
2022/08/05 06:52:21;;;;;;;11.60;3.37;;;;;;;;;;5073098;28;20659;-81
2022/08/05 06:54:48;;;;;;;3.27;3.07;;;;;;;;;;5073480;28;20197;-79
2022/08/05 06:57:17;;;;;;;3.13;2.93;;;;;;;;;;5080833;28;20196;-81
2022/08/05 06:59:43;;;;;;;4.20;3.07;;;;;;;;;;5092398;28;20203;-81
2022/08/05 07:02:10;;;;;;;3.00;2.80;;;;;;;;;;5073749;28;20193;-81
2022/08/05 07:04:37;;;;;;;6.60;5.00;;;;;;;;;;5073358;28;20265;-80
2022/08/05 07:07:05;;;;;;;4.88;3.55;;;;;;;;;;5073106;28;20197;-80
2022/08/05 07:09:34;;;;;;;3.00;2.80;;;;;;;;;;5073159;28;20197;-80
2022/08/05 07:12:00;;;;;;;3.25;3.05;;;;;;;;;;5073239;28;20208;-80
2022/08/05 07:17:11;;;;;;;3.10;2.80;;;;;;;;;;5080659;28;20199;-81
2022/08/05 07:19:39;;;;;;;3.95;2.70;;;;;;;;;;5077936;28;20562;-80
2022/08/05 07:22:07;;;;;;;3.05;2.85;;;;;;;;;;5072628;28;20189;-82
2022/08/05 07:24:34;;;;;;;3.17;2.88;;;;;;;;;;5078119;28;20597;-80
2022/08/05 07:27:00;;;;;;;4.78;2.75;;;;;;;;;;5083583;28;20227;-80
2022/08/05 07:29:27;;;;;;;4.30;2.75;;;;;;;;;;5090010;28;20313;-81
2022/08/05 07:31:54;;;;;;;5.80;2.63;;;;;;;;;;5072783;28;20194;-81
2022/08/05 07:34:21;;;;;;;15.65;3.78;;;;;;;;;;5072403;28;20193;-81
2022/08/05 07:36:47;;;;;;;4.63;3.17;;;;;;;;;;5072744;28;20185;-81
2022/08/05 07:39:16;;;;;;;3.90;3.20;;;;;;;;;;5072432;28;20188;-80
2022/08/05 07:41:43;;;;;;;2.90;2.70;;;;;;;;;;5072938;28;20196;-80
2022/08/05 07:44:09;;;;;;;3.33;2.40;;;;;;;;;;5072536;28;20199;-81
2022/08/05 07:46:36;;;;;;;3.72;2.85;;;;;;;;;;5071914;28;20224;-81
2022/08/05 07:49:04;;;;;;;3.35;2.58;;;;;;;;;;5075315;28;20192;-81
2022/08/05 07:51:33;;;;;;;3.30;3.10;;;;;;;;;;5072482;28;20250;-81
2022/08/05 07:54:00;;;;;;;6.80;3.05;;;;;;;;;;5071785;28;20205;-80
2022/08/05 07:56:28;;;;;;;4.85;2.70;;;;;;;;;;5081459;28;20631;-81
2022/08/05 07:58:55;;;;;;;5.00;2.78;;;;;;;;;;5092828;28;20680;-80
2022/08/05 08:01:24;;;;;;;3.05;2.70;;;;;;;;;;5076837;28;20189;-81
2022/08/05 08:03:51;;;;;;;3.47;2.90;;;;;;;;;;5072070;28;20204;-81
2022/08/05 08:06:18;;;;;;;2.65;2.45;;;;;;;;;;5073157;28;20254;-81
2022/08/05 08:08:45;;;;;;;4.28;2.60;;;;;;;;;;5089966;28;20199;-80
2022/08/05 08:11:11;;;;;;;3.45;2.60;;;;;;;;;;5084973;28;20206;-81
2022/08/05 08:13:40;;;;;;;2.85;2.40;;;;;;;;;;5081669;28;20197;-81
2022/08/05 08:16:09;;;;;;;3.30;2.63;;;;;;;;;;5073275;28;20197;-81
2022/08/05 08:18:36;;;;;;;3.45;2.97;;;;;;;;;;5090197;28;20219;-81
2022/08/05 08:21:02;;;;;;;2.97;2.45;;;;;;;;;;5092063;28;20200;-80
2022/08/05 08:23:29;;;;;;;2.78;2.58;;;;;;;;;;5081517;28;20200;-80
2022/08/05 08:25:56;;;;;;;4.25;2.72;;;;;;;;;;5072092;28;20212;-81
2022/08/05 08:28:23;;;;;;;4.13;2.72;;;;;;;;;;5073200;28;20228;-81
2022/08/05 08:30:52;;;;;;;3.00;2.80;;;;;;;;;;5072662;28;20200;-80
2022/08/05 08:33:19;;;;;;;4.45;2.10;;;;;;;;;;5083598;28;20196;-80
2022/08/05 08:35:45;;;;;;;3.40;3.10;;;;;;;;;;5078201;28;20199;-80
2022/08/05 08:38:15;;;;;;;2.50;2.30;;;;;;;;;;5092667;28;20195;-81
2022/08/05 08:40:42;;;;;;;2.80;2.60;;;;;;;;;;5079649;28;20193;-80
2022/08/05 08:43:13;;;;;;;4.68;2.53;;;;;;;;;;5071535;28;20201;-81
2022/08/05 08:45:40;;;;;;;3.03;2.83;;;;;;;;;;5089590;28;20216;-80
2022/08/05 08:48:09;;;;;;;2.47;2.33;;;;;;;;;;5087145;28;20206;-80
2022/08/05 08:50:37;;;;;;;2.70;2.50;;;;;;;;;;5080233;28;20196;-80
2022/08/05 08:53:05;;;;;;;2.30;2.20;;;;;;;;;;5075092;28;20654;-80
2022/08/05 08:55:33;;;;;;;3.92;2.65;;;;;;;;;;5080024;28;20201;-80
2022/08/05 08:58:00;;;;;;;2.60;2.40;;;;;;;;;;5073867;28;20204;-79
2022/08/05 09:00:27;;;;;;;2.50;2.40;;;;;;;;;;5074053;28;20205;-79
2022/08/05 09:02:54;;;;;;;2.83;2.63;;;;;;;;;;5092639;28;20200;-80
2022/08/05 09:05:23;;;;;;;2.90;2.65;;;;;;;;;;5090447;28;20220;-79
2022/08/05 09:07:51;;;;;;;2.63;2.42;;;;;;;;;;5084662;28;20196;-80
2022/08/05 09:10:18;;;;;;;2.90;2.70;;;;;;;;;;5081869;28;20199;-80
2022/08/05 09:12:45;;;;;;;2.90;2.70;;;;;;;;;;5088555;28;20200;-80
2022/08/05 09:15:12;;;;;;;3.67;3.38;;;;;;;;;;5077986;28;20197;-80
2022/08/05 09:17:40;;;;;;;2.70;2.50;;;;;;;;;;5081593;28;20200;-80
2022/08/05 09:20:08;;;;;;;2.67;2.33;;;;;;;;;;5086771;28;20197;-79
2022/08/05 09:23:09;;;;;;;3.38;2.80;;;;;;;;;;5073189;28;20200;-80
2022/08/05 09:25:37;;;;;;;2.85;2.65;;;;;;;;;;5082711;28;20219;-79
2022/08/05 09:28:13;;;;;;;2.72;2.55;;;;;;;;;;5089896;28;20299;-80
2022/08/05 09:30:43;;;;;;;3.05;2.78;;;;;;;;;;5089755;28;20199;-80
2022/08/05 09:33:09;;;;;;;3.45;2.15;;;;;;;;;;5073749;28;20196;-79
2022/08/05 09:35:36;;;;;;;3.05;2.85;;;;;;;;;;5075453;28;20196;-80
2022/08/05 09:38:08;;;;;;;3.00;2.75;;;;;;;;;;5091432;28;20199;-79
2022/08/05 09:40:38;;;;;;;4.82;2.78;;;;;;;;;;5085274;28;20197;-79
2022/08/05 09:43:06;;;;;;;2.80;2.60;;;;;;;;;;5071321;28;20225;-80
2022/08/05 09:45:40;;;;;;;2.88;2.25;;;;;;;;;;5070814;28;20299;-80
2022/08/05 09:48:20;;;;;;;3.20;2.83;;;;;;;;;;5069051;28;20728;-81
2022/08/05 09:50:50;;;;;;;2.70;2.50;;;;;;;;;;5074701;28;20196;-79
2022/08/05 09:53:19;;;;;;;2.50;2.30;;;;;;;;;;5081476;28;20201;-80
2022/08/05 09:55:46;;;;;;;2.63;2.42;;;;;;;;;;5070774;28;20763;-79
2022/08/05 09:58:13;;;;;;;2.60;2.40;;;;;;;;;;5072350;28;20201;-79
2022/08/05 10:00:40;;;;;;;2.63;2.40;;;;;;;;;;5070439;28;20196;-82
2022/08/05 10:03:11;;;;;;;2.00;1.90;;;;;;;;;;5090350;28;20199;-79
2022/08/05 10:05:40;;;;;;;2.90;2.70;;;;;;;;;;5082987;28;20299;-80
2022/08/05 10:08:07;;;;;;;2.90;2.53;;;;;;;;;;5071943;28;20197;-81
2022/08/05 10:10:39;;;;;;;2.63;2.42;;;;;;;;;;5085387;28;20196;-81
2022/08/05 10:13:06;;;;;;;3.15;2.85;;;;;;;;;;5087865;28;20196;-82
2022/08/05 10:15:34;;;;;;;5.00;2.70;;;;;;;;;;5071621;28;20200;-81
2022/08/05 10:18:15;;;;;;;3.90;2.85;;;;;;;;;;5078043;28;20559;-81
2022/08/05 10:20:46;;;;;;;2.55;2.40;;;;;;;;;;5077987;28;20211;-79
2022/08/05 10:23:16;;;;;;;3.67;3.10;;;;;;;;;;5087811;28;20547;-80
2022/08/05 10:25:44;;;;;;;4.05;2.72;;;;;;;;;;5070837;28;20243;-80
2022/08/05 10:28:11;;;;;;;2.55;2.42;;;;;;;;;;5071873;28;20247;-80
2022/08/05 10:30:39;;;;;;;2.95;2.67;;;;;;;;;;5070388;28;20196;-80
2022/08/05 10:33:07;;;;;;;2.38;2.28;;;;;;;;;;5068876;28;20652;-81
2022/08/05 10:35:34;;;;;;;3.25;2.60;;;;;;;;;;5071856;28;20291;-81
2022/08/05 10:38:02;;;;;;;3.72;2.30;;;;;;;;;;5069969;28;20197;-82
2022/08/05 10:40:34;;;;;;;2.60;2.40;;;;;;;;;;5072064;28;20211;-82
2022/08/05 10:43:09;;;;;;;2.53;2.22;;;;;;;;;;5072112;28;20197;-82
2022/08/05 10:45:36;;;;;;;2.55;2.05;;;;;;;;;;5070275;28;20196;-82
2022/08/05 10:48:37;;;;;;;2.47;2.08;;;;;;;;;;5037117;28;20197;-81
2022/08/05 10:51:10;;;;;;;2.63;2.40;;;;;;;;;;5021926;28;20198;-82
2022/08/05 10:56:58;;;;;;;6.05;2.50;;;;;;;;;;5029965;28;20212;-81
2022/08/05 10:59:28;;;;;;;3.40;2.33;;;;;;;;;;5029085;28;20737;-82
2022/08/05 11:02:08;;;;;;;2.75;2.60;;;;;;;;;;5041118;28;20716;-83
2022/08/05 11:04:44;;;;;;;2.50;2.30;;;;;;;;;;5053207;28;20575;-82
2022/08/05 11:07:14;;;;;;;2.28;2.17;;;;;;;;;;5037076;28;20227;-82
2022/08/05 11:09:46;;;;;;;2.40;2.20;;;;;;;;;;5037169;28;20212;-81
2022/08/05 11:12:46;;;;;;;2.38;2.28;;;;;;;;;;5071434;28;20206;-82
2022/08/05 11:15:20;;;;;;;2.15;2.05;;;;;;;;;;5051576;28;20296;-81
2022/08/05 11:17:48;;;;;;;2.35;2.15;;;;;;;;;;5058795;28;20205;-82
2022/08/05 11:20:39;;;;;;;2.67;2.47;;;;;;;;;;5020711;28;20617;-82
2022/08/05 11:23:25;;;;;;;2.50;2.30;;;;;;;;;;5055738;28;20594;-81
2022/08/05 11:26:02;;;;;;;2.63;2.47;;;;;;;;;;5073241;28;20715;-82
2022/08/05 11:28:42;;;;;;;2.25;2.15;;;;;;;;;;5070544;28;20306;-83
2022/08/05 11:34:42;;;;;;;3.40;2.05;;;;;;;;;;5055827;28;20258;-82
2022/08/05 11:37:08;;;;;;;2.72;2.50;;;;;;;;;;5072427;28;20207;-82
2022/08/05 11:39:50;;;;;;;3.72;2.22;;;;;;;;;;5074267;28;20204;-80
2022/08/05 11:42:23;;;;;;;1.95;1.85;;;;;;;;;;5074073;28;20208;-81
2022/08/05 11:44:51;;;;;;;2.10;2.00;;;;;;;;;;5068677;28;20206;-82
2022/08/05 11:47:22;;;;;;;1.83;1.73;;;;;;;;;;5054054;28;20223;-81
2022/08/05 11:49:56;;;;;;;2.15;2.05;;;;;;;;;;5056355;28;20196;-80
2022/08/05 11:52:24;;;;;;;3.13;2.30;;;;;;;;;;5074567;28;20250;-82
2022/08/05 11:54:51;;;;;;;3.00;2.42;;;;;;;;;;5074427;28;20224;-82
2022/08/05 11:57:18;;;;;;;2.20;2.00;;;;;;;;;;5074241;28;20233;-81
2022/08/05 11:59:45;;;;;;;3.17;2.40;;;;;;;;;;5056138;28;20209;-82
2022/08/05 12:02:13;;;;;;;2.10;2.00;;;;;;;;;;5053997;28;20208;-82
2022/08/05 12:04:41;;;;;;;2.20;2.10;;;;;;;;;;5059750;28;20756;-82
2022/08/05 12:07:12;;;;;;;2.70;2.20;;;;;;;;;;5073203;28;20363;-81
2022/08/05 12:09:40;;;;;;;2.28;2.08;;;;;;;;;;5074177;28;20197;-82
2022/08/05 12:12:11;;;;;;;3.67;2.47;;;;;;;;;;5074289;28;20204;-82
2022/08/05 12:14:40;;;;;;;2.75;2.40;;;;;;;;;;5071841;28;20200;-82
2022/08/05 12:17:08;;;;;;;2.00;1.90;;;;;;;;;;5073423;28;20551;-82
2022/08/05 12:19:41;;;;;;;2.47;2.28;;;;;;;;;;5072729;28;20288;-82
2022/08/05 12:22:11;;;;;;;2.30;2.20;;;;;;;;;;5073524;28;20197;-82
2022/08/05 12:24:41;;;;;;;3.17;2.33;;;;;;;;;;5073554;28;20624;-80
2022/08/05 12:27:08;;;;;;;2.67;2.30;;;;;;;;;;5082042;28;20235;-81
2022/08/05 12:29:35;;;;;;;2.35;2.25;;;;;;;;;;5093448;28;20200;-81
2022/08/05 12:32:04;;;;;;;2.17;2.08;;;;;;;;;;5094200;28;20203;-82
2022/08/05 12:34:33;;;;;;;3.30;2.35;;;;;;;;;;5059343;28;20204;-81
2022/08/05 12:37:09;;;;;;;2.35;2.17;;;;;;;;;;5068848;28;20205;-81
2022/08/05 12:39:38;;;;;;;2.38;2.17;;;;;;;;;;5072179;28;20205;-80
2022/08/05 12:42:10;;;;;;;4.32;2.33;;;;;;;;;;5073318;28;20231;-83
2022/08/05 12:44:37;;;;;;;6.38;2.30;;;;;;;;;;5073658;28;20228;-81
2022/08/05 12:47:05;;;;;;;1.90;1.80;;;;;;;;;;5072318;28;20799;-80
2022/08/05 12:49:43;;;;;;;5.72;2.45;;;;;;;;;;5070010;28;20278;-79
2022/08/05 12:52:14;;;;;;;3.78;1.98;;;;;;;;;;5072549;28;20197;-81
2022/08/05 12:54:43;;;;;;;3.85;2.30;;;;;;;;;;5073536;28;20263;-80
2022/08/05 12:57:11;;;;;;;2.40;2.20;;;;;;;;;;5071929;28;20643;-82
2022/08/05 12:59:47;;;;;;;2.35;2.20;;;;;;;;;;5072741;28;20254;-82
2022/08/05 13:02:16;;;;;;;2.58;2.35;;;;;;;;;;5074576;28;20242;-83
2022/08/05 13:04:45;;;;;;;3.10;2.63;;;;;;;;;;5080960;28;20200;-83
2022/08/05 13:07:14;;;;;;;2.63;2.42;;;;;;;;;;5092797;28;20333;-84
2022/08/05 13:09:43;;;;;;;2.42;2.22;;;;;;;;;;5092926;28;20199;-82
2022/08/05 13:12:13;;;;;;;3.13;2.25;;;;;;;;;;5092808;28;20201;-81
2022/08/05 13:14:41;;;;;;;5.03;2.40;;;;;;;;;;5093422;28;20204;-81
2022/08/05 13:17:10;;;;;;;2.42;2.33;;;;;;;;;;5080524;28;20247;-82
2022/08/05 13:19:37;;;;;;;2.72;2.53;;;;;;;;;;5072528;28;20204;-83
2022/08/05 13:22:04;;;;;;;4.93;2.33;;;;;;;;;;5054676;28;20259;-82
2022/08/05 13:24:32;;;;;;;3.00;2.65;;;;;;;;;;5072607;28;20583;-82
2022/08/05 13:27:00;;;;;;;2.30;2.13;;;;;;;;;;5081590;28;20646;-83
2022/08/05 13:29:27;;;;;;;5.03;2.45;;;;;;;;;;5092574;28;20238;-86
2022/08/05 13:31:57;;;;;;;2.70;2.50;;;;;;;;;;5074615;28;20199;-83
2022/08/05 13:34:24;;;;;;;2.67;2.38;;;;;;;;;;5092897;28;20188;-84
2022/08/05 13:36:51;;;;;;;4.85;2.42;;;;;;;;;;5089359;28;20200;-84
2022/08/05 13:39:18;;;;;;;2.72;2.53;;;;;;;;;;5037995;28;20197;-84
2022/08/05 13:41:45;;;;;;;2.33;2.20;;;;;;;;;;5072580;28;20618;-83
2022/08/05 13:44:14;;;;;;;4.88;2.10;;;;;;;;;;5068638;28;20670;-81
2022/08/05 13:46:59;;;;;;;3.00;2.70;;;;;;;;;;5074823;28;20204;-80
2022/08/05 13:49:47;;;;;;;3.35;2.53;;;;;;;;;;5100355;28;20200;-78
2022/08/05 13:52:22;;;;;;;2.95;2.58;;;;;;;;;;5096420;28;20208;-78
2022/08/05 14:02:20;;;;;;;2.42;2.30;;;;;;;;;;5074168;28;20191;-83
2022/08/05 14:07:37;;;;;;;5.78;2.70;;;;;;;;;;5075141;28;20592;-83
2022/08/05 14:10:05;;;;;;;2.83;2.60;;;;;;;;;;5074151;28;20628;-80
2022/08/05 14:12:39;;;;;;;3.35;3.13;;;;;;;;;;5073953;28;20201;-79
2022/08/05 14:15:07;;;;;;;3.03;2.83;;;;;;;;;;5072441;28;20674;-80
2022/08/05 14:17:35;;;;;;;3.33;3.13;;;;;;;;;;5037640;28;20261;-85
2022/08/05 14:20:05;;;;;;;2.92;2.70;;;;;;;;;;5053318;28;20689;-83
2022/08/05 14:22:34;;;;;;;4.30;3.60;;;;;;;;;;5054123;28;20211;-84
2022/08/05 14:25:02;;;;;;;3.20;3.00;;;;;;;;;;5071390;28;20574;-84
2022/08/05 14:27:29;;;;;;;3.45;2.95;;;;;;;;;;5053400;28;20233;-84
2022/08/05 14:29:56;;;;;;;5.03;2.90;;;;;;;;;;5071288;28;20197;-84
2022/08/05 14:32:23;;;;;;;3.53;3.22;;;;;;;;;;5057326;28;20231;-83
2022/08/05 14:34:50;;;;;;;7.43;3.20;;;;;;;;;;5090813;28;20582;-83
2022/08/05 14:37:19;;;;;;;3.08;2.88;;;;;;;;;;5091546;28;20579;-84
2022/08/05 14:39:46;;;;;;;3.53;2.95;;;;;;;;;;5091058;28;20269;-83
2022/08/05 14:42:13;;;;;;;3.95;2.72;;;;;;;;;;5091356;28;20204;-84
2022/08/05 14:44:41;;;;;;;5.10;3.20;;;;;;;;;;5070142;28;20212;-84
2022/08/05 14:47:08;;;;;;;3.35;2.97;;;;;;;;;;5053158;28;20567;-82
2022/08/05 14:49:35;;;;;;;3.67;3.38;;;;;;;;;;5069948;28;20208;-81
2022/08/05 14:52:02;;;;;;;2.97;2.78;;;;;;;;;;5053356;28;20201;-82
2022/08/05 14:54:31;;;;;;;3.10;2.83;;;;;;;;;;5071136;28;20197;-81
2022/08/05 14:56:59;;;;;;;6.25;4.80;;;;;;;;;;5037551;28;20209;-81
2022/08/05 14:59:26;;;;;;;3.25;3.05;;;;;;;;;;5071047;28;20206;-82
2022/08/05 15:01:55;;;;;;;2.88;2.67;;;;;;;;;;5072243;28;20205;-82
2022/08/05 15:04:23;;;;;;;3.28;2.80;;;;;;;;;;5073461;28;20690;-81
2022/08/05 15:06:50;;;;;;;2.47;2.38;;;;;;;;;;5058297;28;20201;-82
2022/08/05 15:09:17;;;;;;;2.95;2.75;;;;;;;;;;5075495;28;20197;-78
2022/08/05 15:11:47;;;;;;;13.32;3.20;;;;;;;;;;5075203;28;20192;-84
2022/08/05 15:14:14;;;;;;;3.30;3.05;;;;;;;;;;5075348;28;20197;-80
2022/08/05 15:16:42;;;;;;;2.17;2.08;;;;;;;;;;5040928;28;20223;-81